createdAt,value
2023-04-14T00:02:10.665Z,7.59
2023-04-14T00:04:37.723Z,7.69
2023-04-14T00:07:04.741Z,7.72
2023-04-14T00:09:31.493Z,7.76
2023-04-14T00:11:58.403Z,7.72
2023-04-14T00:14:25.370Z,7.65
2023-04-14T00:16:52.136Z,7.69
2023-04-14T00:19:19.058Z,7.65
2023-04-14T00:21:45.842Z,7.31
2023-04-14T00:24:12.720Z,7.22
2023-04-14T00:26:39.510Z,7.31
2023-04-14T00:29:06.640Z,7.42
2023-04-14T00:31:34.251Z,7.53
2023-04-14T00:34:01.258Z,7.71
2023-04-14T00:36:28.873Z,7.80
2023-04-14T00:38:55.742Z,7.88
2023-04-14T00:41:24.879Z,7.97
2023-04-14T00:43:54.917Z,8.02
2023-04-14T00:46:22.808Z,8.17
2023-04-14T00:48:49.843Z,8.29
2023-04-14T00:51:16.900Z,8.35
2023-04-14T00:53:43.703Z,8.41
2023-04-14T00:56:11.108Z,8.47
2023-04-14T00:58:38.740Z,8.54
2023-04-14T01:01:06.432Z,8.62
2023-04-14T01:03:33.912Z,8.68
2023-04-14T01:06:01.147Z,8.74
2023-04-14T01:08:28.306Z,8.81
2023-04-14T01:11:06.811Z,8.82
2023-04-14T01:14:03.716Z,8.86
2023-04-14T01:16:35.225Z,8.93
2023-04-14T01:19:42.757Z,8.92
2023-04-14T01:22:10.746Z,8.95
2023-04-14T01:25:04.403Z,8.93
2023-04-14T01:27:57.989Z,8.86
2023-04-14T01:30:44.390Z,8.80
2023-04-14T01:33:16.527Z,8.80
2023-04-14T01:35:47.911Z,8.77
2023-04-14T01:38:19.730Z,8.73
2023-04-14T01:40:50.390Z,8.74
2023-04-14T01:43:17.758Z,8.75
2023-04-14T01:45:50.567Z,8.79
2023-04-14T01:48:17.704Z,8.79
2023-04-14T01:50:46.186Z,8.79
2023-04-14T01:53:13.940Z,8.77
2023-04-14T01:55:42.014Z,8.78
2023-04-14T01:58:09.507Z,8.82
2023-04-14T02:00:37.240Z,8.87
2023-04-14T02:03:05.129Z,8.89
2023-04-14T02:05:33.766Z,8.92
2023-04-14T02:08:00.926Z,8.96
2023-04-14T02:10:28.056Z,8.97
2023-04-14T02:12:58.659Z,8.90
2023-04-14T02:15:26.317Z,8.81
2023-04-14T02:17:53.224Z,8.76
2023-04-14T02:20:21.312Z,8.55
2023-04-14T02:22:48.408Z,8.52
2023-04-14T02:25:15.382Z,8.56
2023-04-14T02:27:57.112Z,8.63
2023-04-14T02:30:32.074Z,8.66
2023-04-14T02:33:08.105Z,8.71
2023-04-14T02:35:44.500Z,8.73
2023-04-14T02:38:18.755Z,8.76
2023-04-14T02:40:46.712Z,8.77
2023-04-14T02:43:18.083Z,8.77
2023-04-14T02:45:49.030Z,8.79
2023-04-14T02:48:18.396Z,8.81
2023-04-14T02:50:48.448Z,8.81
2023-04-14T02:53:21.964Z,8.84
2023-04-14T02:55:54.523Z,8.89
2023-04-14T02:58:21.749Z,8.98
2023-04-14T03:00:49.442Z,8.93
2023-04-14T03:03:17.185Z,8.90
2023-04-14T03:05:45.397Z,8.84
2023-04-14T03:08:16.020Z,8.87
2023-04-14T03:10:48.324Z,8.88
2023-04-14T03:13:18.346Z,8.98
2023-04-14T03:15:46.180Z,9.02
2023-04-14T03:18:14.702Z,9.01
2023-04-14T03:20:44.233Z,8.99
2023-04-14T03:23:12.485Z,8.87
2023-04-14T03:25:47.108Z,8.84
2023-04-14T03:28:23.026Z,8.90
2023-04-14T03:30:54.172Z,8.96
2023-04-14T03:33:28.478Z,8.99
2023-04-14T03:35:58.637Z,8.99
2023-04-14T03:38:28.418Z,9.01
2023-04-14T03:40:59.955Z,9.01
2023-04-14T03:43:28.305Z,9.02
2023-04-14T03:46:01.337Z,8.83
2023-04-14T03:48:30.183Z,8.71
2023-04-14T03:50:58.542Z,8.65
2023-04-14T03:53:25.925Z,8.70
2023-04-14T03:55:56.407Z,8.73
2023-04-14T03:58:23.322Z,8.77
2023-04-14T04:00:52.393Z,8.80
2023-04-14T04:03:19.909Z,8.87
2023-04-14T04:05:46.964Z,8.82
2023-04-14T04:08:14.781Z,8.84
2023-04-14T04:10:42.807Z,8.77
2023-04-14T04:13:13.413Z,8.78
2023-04-14T04:15:41.909Z,8.76
2023-04-14T04:18:11.399Z,8.74
2023-04-14T04:20:40.794Z,8.66
2023-04-14T04:23:09.087Z,8.70
2023-04-14T04:25:36.626Z,8.67
2023-04-14T04:28:12.468Z,8.72
2023-04-14T04:30:41.246Z,8.77
2023-04-14T04:33:08.868Z,8.79
2023-04-14T04:35:37.544Z,8.80
2023-04-14T04:38:11.414Z,8.81
2023-04-14T04:40:41.516Z,8.87
2023-04-14T04:43:28.341Z,8.94
2023-04-14T04:46:12.393Z,8.98
2023-04-14T04:48:39.421Z,9.03
2023-04-14T04:51:06.375Z,9.07
2023-04-14T04:53:33.204Z,9.11
2023-04-14T04:56:00.071Z,9.13
2023-04-14T04:58:26.946Z,9.14
2023-04-14T05:00:54.767Z,9.16
2023-04-14T05:03:21.816Z,9.16
2023-04-14T05:05:48.825Z,9.21
2023-04-14T05:08:15.748Z,9.21
2023-04-14T05:10:42.699Z,9.18
2023-04-14T05:13:09.527Z,9.19
2023-04-14T05:15:36.467Z,9.24
2023-04-14T05:18:03.669Z,9.29
2023-04-14T05:20:30.485Z,9.33
2023-04-14T05:22:57.380Z,9.39
2023-04-14T05:25:24.315Z,9.44
2023-04-14T05:27:51.137Z,9.48
2023-04-14T05:30:18.002Z,9.51
2023-04-14T05:32:44.988Z,9.44
2023-04-14T05:35:11.828Z,9.35
2023-04-14T05:37:38.666Z,9.35
2023-04-14T05:40:06.163Z,9.52
2023-04-14T05:42:32.954Z,9.62
2023-04-14T05:45:00.001Z,9.84
2023-04-14T05:47:26.877Z,10.06
2023-04-14T05:49:53.755Z,10.29
2023-04-14T05:52:20.700Z,10.41
2023-04-14T05:54:47.562Z,10.48
2023-04-14T05:57:14.400Z,10.67
2023-04-14T05:59:41.955Z,10.80
2023-04-14T06:02:08.935Z,11.03
2023-04-14T06:04:36.051Z,10.96
2023-04-14T06:07:03.180Z,10.93
2023-04-14T06:09:30.082Z,10.78
2023-04-14T06:11:57.598Z,10.87
2023-04-14T06:14:24.447Z,11.02
2023-04-14T06:16:51.463Z,11.13
2023-04-14T06:19:18.906Z,11.24
2023-04-14T06:21:47.146Z,11.30
2023-04-14T06:24:14.032Z,11.51
2023-04-14T06:26:40.939Z,11.49
2023-04-14T06:29:08.043Z,11.73
2023-04-14T06:31:36.110Z,11.74
2023-04-14T06:34:03.137Z,11.63
2023-04-14T06:36:30.013Z,11.77
2023-04-14T06:38:57.882Z,12.08
2023-04-14T06:41:25.054Z,12.35
2023-04-14T06:43:52.110Z,12.13
2023-04-14T06:46:19.110Z,12.15
2023-04-14T06:48:46.213Z,12.29
2023-04-14T06:51:13.838Z,12.41
2023-04-14T06:53:40.959Z,12.69
2023-04-14T06:56:08.334Z,12.33
2023-04-14T06:58:35.275Z,12.50
2023-04-14T07:01:03.602Z,12.27
2023-04-14T07:03:31.427Z,12.42
2023-04-14T07:08:35.349Z,12.21
2023-04-14T07:11:04.454Z,12.04
2023-04-14T07:13:31.336Z,12.20
2023-04-14T07:15:59.356Z,12.07
2023-04-14T07:18:29.072Z,12.32
2023-04-14T07:20:56.500Z,12.28
2023-04-14T07:23:23.408Z,12.18
2023-04-14T07:25:54.782Z,12.16
2023-04-14T07:28:23.193Z,12.19
2023-04-14T07:30:50.921Z,12.41
2023-04-14T07:33:22.359Z,12.50
2023-04-14T07:36:01.451Z,12.57
2023-04-14T07:38:31.507Z,12.45
2023-04-14T07:40:58.353Z,12.47
2023-04-14T07:43:26.499Z,12.50
2023-04-14T07:45:53.550Z,12.54
2023-04-14T07:48:21.749Z,12.29
2023-04-14T07:50:50.100Z,12.29
2023-04-14T07:53:16.977Z,12.17
2023-04-14T07:55:43.989Z,12.08
2023-04-14T07:58:15.268Z,11.91
2023-04-14T08:00:43.066Z,12.02
2023-04-14T08:03:10.352Z,11.82
2023-04-14T08:05:38.024Z,11.76
2023-04-14T08:08:05.434Z,11.73
2023-04-14T08:10:33.315Z,12.09
2023-04-14T08:13:03.079Z,12.38
2023-04-14T08:15:32.341Z,12.10
2023-04-14T08:17:59.297Z,12.32
2023-04-14T08:20:26.351Z,12.27
2023-04-14T08:22:53.183Z,12.16
2023-04-14T08:25:21.570Z,12.38
2023-04-14T08:27:48.484Z,12.25
2023-04-14T08:30:15.732Z,12.07
2023-04-14T08:32:42.686Z,12.11
2023-04-14T08:35:35.357Z,11.73
2023-04-14T08:38:01.413Z,12.01
2023-04-14T08:40:37.550Z,12.19
2023-04-14T08:43:05.679Z,11.96
2023-04-14T08:45:33.421Z,12.07
2023-04-14T08:48:01.465Z,12.11
2023-04-14T08:50:33.685Z,12.26
2023-04-14T08:53:04.198Z,12.07
2023-04-14T08:55:32.570Z,12.11
2023-04-14T08:58:01.494Z,11.92
2023-04-14T09:00:28.557Z,12.01
2023-04-14T09:02:56.244Z,12.02
2023-04-14T09:05:23.599Z,12.02
2023-04-14T09:07:50.619Z,12.11
2023-04-14T09:10:17.740Z,12.24
2023-04-14T09:12:45.250Z,12.35
2023-04-14T09:15:13.349Z,12.47
2023-04-14T09:17:40.657Z,12.93
2023-04-14T09:20:36.048Z,13.25
2023-04-14T09:22:55.616Z,13.37
2023-04-14T09:25:22.549Z,13.56
2023-04-14T09:27:49.975Z,13.65
2023-04-14T09:30:17.850Z,13.51
2023-04-14T09:32:45.396Z,13.23
2023-04-14T09:35:16.327Z,13.33
2023-04-14T09:37:44.732Z,13.11
2023-04-14T09:40:26.943Z,13.18
2023-04-14T09:42:54.320Z,13.18
2023-04-14T09:45:21.254Z,12.91
2023-04-14T09:47:49.001Z,12.90
2023-04-14T09:50:15.928Z,12.66
2023-04-14T09:52:48.561Z,12.89
2023-04-14T09:55:17.034Z,13.06
2023-04-14T09:57:47.396Z,13.18
2023-04-14T10:00:22.642Z,13.16
2023-04-14T10:02:58.476Z,13.01
2023-04-14T10:05:32.936Z,13.28
2023-04-14T10:08:05.455Z,13.46
2023-04-14T10:10:32.782Z,13.30
2023-04-14T10:13:00.991Z,13.24
2023-04-14T10:15:28.397Z,12.99
2023-04-14T10:17:56.467Z,12.96
2023-04-14T10:20:23.779Z,13.08
2023-04-14T10:22:52.080Z,13.07
2023-04-14T10:25:19.200Z,12.87
2023-04-14T10:27:46.439Z,12.61
2023-04-14T10:30:13.642Z,12.59
2023-04-14T10:32:42.816Z,12.63
2023-04-14T10:35:11.845Z,12.21
2023-04-14T10:37:38.939Z,12.08
2023-04-14T10:40:07.378Z,12.21
2023-04-14T10:42:54.774Z,12.23
2023-04-14T10:45:22.148Z,12.47
2023-04-14T10:47:50.323Z,12.40
2023-04-14T10:50:19.456Z,12.22
2023-04-14T10:52:56.154Z,12.24
2023-04-14T10:55:28.023Z,12.10
2023-04-14T10:58:09.500Z,12.15
2023-04-14T11:00:39.858Z,11.83
2023-04-14T11:03:16.534Z,11.64
2023-04-14T11:05:45.572Z,11.86
2023-04-14T11:08:19.902Z,11.81
2023-04-14T11:10:51.401Z,11.97
2023-04-14T11:13:19.302Z,11.73
2023-04-14T11:16:07.422Z,11.96
2023-04-14T11:18:38.697Z,12.01
2023-04-14T11:21:08.375Z,12.19
2023-04-14T11:23:38.174Z,12.32
2023-04-14T11:26:07.514Z,12.20
2023-04-14T11:28:39.529Z,12.23
2023-04-14T11:31:08.529Z,12.54
2023-04-14T11:33:37.827Z,12.47
2023-04-14T11:36:06.589Z,12.59
2023-04-14T11:38:40.378Z,12.63
2023-04-14T11:41:07.889Z,12.81
2023-04-14T11:43:34.859Z,13.09
2023-04-14T11:46:05.107Z,13.15
2023-04-14T11:48:32.519Z,12.87
2023-04-14T11:51:03.900Z,12.24
2023-04-14T11:53:31.370Z,12.07
2023-04-14T11:55:58.847Z,12.54
2023-04-14T11:58:27.273Z,12.75
2023-04-14T12:00:56.432Z,12.45
2023-04-14T12:03:30.416Z,12.20
2023-04-14T12:06:00.055Z,12.32
2023-04-14T12:08:52.263Z,12.11
2023-04-14T12:11:19.235Z,12.26
2023-04-14T12:13:47.651Z,12.27
2023-04-14T12:16:16.136Z,12.37
2023-04-14T12:18:44.023Z,12.40
2023-04-14T12:21:12.129Z,12.36
2023-04-14T12:23:42.749Z,12.39
2023-04-14T12:26:12.054Z,12.61
2023-04-14T12:28:41.428Z,12.68
2023-04-14T12:31:09.158Z,12.82
2023-04-14T12:33:36.510Z,12.23
2023-04-14T12:36:06.213Z,12.11
2023-04-14T12:38:34.362Z,12.18
2023-04-14T12:41:01.431Z,11.73
2023-04-14T12:43:38.344Z,11.72
2023-04-14T12:46:05.868Z,11.88
2023-04-14T12:48:41.796Z,11.78
2023-04-14T12:51:12.598Z,11.80
2023-04-14T12:53:40.159Z,11.97
2023-04-14T12:56:16.575Z,12.09
2023-04-14T12:58:47.108Z,11.93
2023-04-14T13:01:17.191Z,12.00
2023-04-14T13:03:52.884Z,12.14
2023-04-14T13:06:21.597Z,12.41
2023-04-14T13:08:56.347Z,12.61
2023-04-14T13:11:24.454Z,12.62
2023-04-14T13:13:52.545Z,12.55
2023-04-14T13:16:20.576Z,12.64
2023-04-14T13:18:48.603Z,12.70
2023-04-14T13:21:16.042Z,12.29
2023-04-14T13:23:42.938Z,12.45
2023-04-14T13:26:10.059Z,12.37
2023-04-14T13:28:37.234Z,12.04
2023-04-14T13:31:04.232Z,11.96
2023-04-14T13:33:32.584Z,11.87
2023-04-14T13:35:59.458Z,11.81
2023-04-14T13:38:26.521Z,11.78
2023-04-14T13:40:53.420Z,11.95
2023-04-14T13:43:20.396Z,12.15
2023-04-14T13:45:47.378Z,12.23
2023-04-14T13:48:14.830Z,12.10
2023-04-14T13:50:41.978Z,11.98
2023-04-14T13:53:09.226Z,11.93
2023-04-14T13:55:36.477Z,11.78
2023-04-14T13:58:03.663Z,11.73
2023-04-14T14:00:30.589Z,11.80
2023-04-14T14:02:57.750Z,11.95
2023-04-14T14:05:25.040Z,12.26
2023-04-14T14:07:52.188Z,12.17
2023-04-14T14:10:19.256Z,12.25
2023-04-14T14:12:46.425Z,12.33
2023-04-14T14:15:13.734Z,12.30
2023-04-14T14:17:41.113Z,12.35
2023-04-14T14:20:09.224Z,12.27
2023-04-14T14:22:36.699Z,12.45
2023-04-14T14:25:15.233Z,12.51
2023-04-14T14:27:46.046Z,12.56
2023-04-14T14:30:13.195Z,12.53
2023-04-14T14:32:40.213Z,12.38
2023-04-14T14:35:07.409Z,12.23
2023-04-14T14:37:34.300Z,12.21
2023-04-14T14:40:01.151Z,12.20
2023-04-14T14:42:28.345Z,12.22
2023-04-14T14:44:55.440Z,12.32
2023-04-14T14:47:22.340Z,12.34
2023-04-14T14:49:59.706Z,12.30
2023-04-14T14:52:34.212Z,12.44
2023-04-14T14:55:01.843Z,12.49
2023-04-14T14:57:29.398Z,12.43
2023-04-14T14:59:57.107Z,12.29
2023-04-14T15:02:25.763Z,12.27
2023-04-14T15:04:53.506Z,12.22
2023-04-14T15:07:20.847Z,12.06
2023-04-14T15:09:48.983Z,12.03
2023-04-14T15:12:15.791Z,11.97
2023-04-14T15:14:42.610Z,12.02
2023-04-14T15:17:09.496Z,12.09
2023-04-14T15:19:36.272Z,12.17
2023-04-14T15:22:03.115Z,11.99
2023-04-14T15:24:30.003Z,12.06
2023-04-14T15:26:57.735Z,12.10
2023-04-14T15:29:26.041Z,12.01
2023-04-14T15:31:53.155Z,11.96
2023-04-14T15:34:21.517Z,11.95
2023-04-14T15:36:48.590Z,12.07
2023-04-14T15:39:15.465Z,12.13
2023-04-14T15:41:42.360Z,11.98
2023-04-14T15:44:09.306Z,11.93
2023-04-14T15:46:36.123Z,12.07
2023-04-14T15:49:03.064Z,12.13
2023-04-14T15:51:29.876Z,12.04
2023-04-14T15:53:56.783Z,12.06
2023-04-14T15:56:24.533Z,12.09
2023-04-14T15:58:51.447Z,12.02
2023-04-14T16:01:18.416Z,11.98
2023-04-14T16:03:45.487Z,12.05
2023-04-14T16:06:12.910Z,12.09
2023-04-14T16:08:40.086Z,12.06
2023-04-14T16:11:07.950Z,12.05
2023-04-14T16:13:34.862Z,11.94
2023-04-14T16:16:01.847Z,12.00
2023-04-14T16:18:28.672Z,11.89
2023-04-14T16:20:55.647Z,11.89
2023-04-14T16:23:22.502Z,11.86
2023-04-14T16:25:50.160Z,11.96
2023-04-14T16:28:17.192Z,11.90
2023-04-14T16:30:44.303Z,11.85
2023-04-14T16:33:11.664Z,11.76
2023-04-14T16:35:38.464Z,11.70
2023-04-14T16:38:08.657Z,11.59
2023-04-14T16:40:41.573Z,11.55
2023-04-14T16:43:10.351Z,11.55
2023-04-14T16:45:37.239Z,11.62
2023-04-14T16:48:04.256Z,11.53
2023-04-14T16:50:31.949Z,11.59
2023-04-14T16:52:58.855Z,11.47
2023-04-14T16:55:25.867Z,11.44
2023-04-14T16:57:52.733Z,11.47
2023-04-14T17:00:19.757Z,11.40
2023-04-14T17:02:47.233Z,11.32
2023-04-14T17:05:16.234Z,11.24
2023-04-14T17:07:43.545Z,11.27
2023-04-14T17:10:11.035Z,11.14
2023-04-14T17:12:38.004Z,11.11
2023-04-14T17:15:11.401Z,11.13
2023-04-14T17:17:38.902Z,11.11
2023-04-14T17:20:08.995Z,11.06
2023-04-14T17:22:39.672Z,10.98
2023-04-14T17:25:12.491Z,11.07
2023-04-14T17:27:40.171Z,11.07
2023-04-14T17:30:10.150Z,11.12
2023-04-14T17:32:40.348Z,11.09
2023-04-14T17:35:09.733Z,11.06
2023-04-14T17:37:41.816Z,11.02
2023-04-14T17:40:18.196Z,11.04
2023-04-14T17:42:46.022Z,11.10
2023-04-14T17:45:13.750Z,11.02
2023-04-14T17:47:43.794Z,11.05
2023-04-14T17:50:14.229Z,11.07
2023-04-14T17:52:41.158Z,11.02
2023-04-14T17:55:10.655Z,10.99
2023-04-14T17:57:38.953Z,11.08
2023-04-14T18:00:11.010Z,11.00
2023-04-14T18:02:41.480Z,10.96
2023-04-14T18:05:09.855Z,11.06
2023-04-14T18:07:38.030Z,10.99
2023-04-14T18:10:06.413Z,10.92
2023-04-14T18:12:33.532Z,11.00
2023-04-14T18:15:00.415Z,10.93
2023-04-14T18:17:29.457Z,10.92
2023-04-14T18:20:01.440Z,10.90
2023-04-14T18:22:31.205Z,10.92
2023-04-14T18:24:58.104Z,10.89
2023-04-14T18:30:02.893Z,10.76
2023-04-14T18:32:33.327Z,10.68
2023-04-14T18:35:02.911Z,10.61
2023-04-14T18:37:31.699Z,10.58
2023-04-14T18:39:59.682Z,10.61
2023-04-14T18:42:27.400Z,10.54
2023-04-14T18:44:56.635Z,10.56
2023-04-14T18:47:26.224Z,10.56
2023-04-14T18:49:55.839Z,10.53
2023-04-14T18:52:25.157Z,10.49
2023-04-14T18:54:53.232Z,10.48
2023-04-14T18:57:20.191Z,10.53
2023-04-14T18:59:47.726Z,10.63
2023-04-14T19:02:14.612Z,10.66
2023-04-14T19:04:41.518Z,10.71
2023-04-14T19:07:08.324Z,10.79
2023-04-14T19:09:36.239Z,10.84
2023-04-14T19:12:03.664Z,10.82
2023-04-14T19:14:30.456Z,10.88
2023-04-14T19:16:58.004Z,10.91
2023-04-14T19:19:25.177Z,11.00
2023-04-14T19:21:52.505Z,10.96
2023-04-14T19:24:20.069Z,10.94
2023-04-14T19:26:47.115Z,10.95
2023-04-14T19:29:14.192Z,10.96
2023-04-14T19:31:40.992Z,10.96
2023-04-14T19:34:07.954Z,10.87
2023-04-14T19:36:35.302Z,10.93
2023-04-14T19:39:03.983Z,10.94
2023-04-14T19:41:37.887Z,10.95
2023-04-14T19:44:08.828Z,10.99
2023-04-14T19:46:38.156Z,10.96
2023-04-14T19:49:06.116Z,10.95
2023-04-14T19:51:35.776Z,10.97
2023-04-14T19:54:05.613Z,10.86
2023-04-14T19:56:33.409Z,10.84
2023-04-14T19:59:01.729Z,10.80
2023-04-14T20:01:29.216Z,10.74
2023-04-14T20:04:06.828Z,10.75
2023-04-14T20:06:45.802Z,10.70
2023-04-14T20:09:17.441Z,10.64
2023-04-14T20:11:47.525Z,10.51
2023-04-14T20:14:17.829Z,10.46
2023-04-14T20:16:46.360Z,10.46
2023-04-14T20:19:13.842Z,10.37
2023-04-14T20:21:40.886Z,10.31
2023-04-14T20:24:07.995Z,10.23
2023-04-14T20:26:35.158Z,10.20
2023-04-14T20:29:03.232Z,10.05
2023-04-14T20:31:32.132Z,10.01
2023-04-14T20:33:59.431Z,9.98
2023-04-14T20:36:32.394Z,9.90
2023-04-14T20:38:59.752Z,9.91
2023-04-14T20:41:28.261Z,9.85
2023-04-14T20:43:55.841Z,9.81
2023-04-14T20:46:24.066Z,9.77
2023-04-14T20:48:51.191Z,9.71
2023-04-14T20:51:19.286Z,9.53
2023-04-14T20:53:46.465Z,9.42
2023-04-14T20:56:15.392Z,9.37
2023-04-14T20:58:43.929Z,9.33
2023-04-14T21:01:12.645Z,9.36
2023-04-14T21:03:41.354Z,9.33
2023-04-14T21:06:08.787Z,9.31
2023-04-14T21:08:39.360Z,9.19
2023-04-14T21:11:16.908Z,9.16
2023-04-14T21:15:26.826Z,9.13
2023-04-14T21:16:33.422Z,9.08
2023-04-14T21:19:02.432Z,9.00
2023-04-14T21:21:29.926Z,8.98
2023-04-14T21:23:56.784Z,8.98
2023-04-14T21:26:24.018Z,8.95
2023-04-14T21:28:50.933Z,8.88
2023-04-14T21:31:18.519Z,8.84
2023-04-14T21:33:46.382Z,8.74
2023-04-14T21:36:13.633Z,8.74
2023-04-14T21:38:40.657Z,8.73
2023-04-14T21:41:10.854Z,8.73
2023-04-14T21:43:38.852Z,8.67
2023-04-14T21:46:05.795Z,8.67
2023-04-14T21:48:32.822Z,8.70
2023-04-14T21:50:59.677Z,8.68
2023-04-14T21:53:26.591Z,8.72
2023-04-14T21:56:01.828Z,8.66
2023-04-14T21:58:36.680Z,8.64
2023-04-14T22:01:03.756Z,8.66
2023-04-14T22:03:30.786Z,8.63
2023-04-14T22:05:57.841Z,8.61
2023-04-14T22:08:24.655Z,8.59
2023-04-14T22:10:52.522Z,8.52
2023-04-14T22:13:19.320Z,8.52
2023-04-14T22:15:46.831Z,8.51
2023-04-14T22:18:14.308Z,8.36
2023-04-14T22:20:41.209Z,8.42
2023-04-14T22:23:08.009Z,8.38
2023-04-14T22:25:35.491Z,8.29
2023-04-14T22:28:02.295Z,8.29
2023-04-14T22:30:29.957Z,8.33
2023-04-14T22:32:57.407Z,8.34
2023-04-14T22:35:24.328Z,8.41
2023-04-14T22:37:51.799Z,8.37
2023-04-14T22:40:18.686Z,8.36
2023-04-14T22:42:45.980Z,8.32
2023-04-14T22:45:13.633Z,8.24
2023-04-14T22:47:40.768Z,8.17
2023-04-14T22:50:08.229Z,8.13
2023-04-14T22:52:35.124Z,8.03
2023-04-14T22:55:02.337Z,8.02
2023-04-14T22:57:29.251Z,7.96
2023-04-14T22:59:56.111Z,8.00
2023-04-14T23:02:23.133Z,7.94
2023-04-14T23:04:50.050Z,7.91
2023-04-14T23:07:16.966Z,7.82
2023-04-14T23:09:43.742Z,7.84
2023-04-14T23:12:10.525Z,7.85
2023-04-14T23:14:37.441Z,7.79
2023-04-14T23:17:04.340Z,7.81
2023-04-14T23:19:33.104Z,7.84
2023-04-14T23:21:59.895Z,7.83
2023-04-14T23:24:26.866Z,7.82
2023-04-14T23:26:53.652Z,7.77
2023-04-14T23:29:20.561Z,7.79
2023-04-14T23:31:47.401Z,7.77
2023-04-14T23:34:14.341Z,7.76
2023-04-14T23:36:41.789Z,7.77
2023-04-14T23:39:08.669Z,7.78
2023-04-14T23:41:35.608Z,7.85
2023-04-14T23:44:02.587Z,7.85
2023-04-14T23:46:29.967Z,7.87
2023-04-14T23:48:59.077Z,7.96
2023-04-14T23:51:45.149Z,7.95
2023-04-14T23:54:12.185Z,7.97
2023-04-14T23:56:39.015Z,7.94
2023-04-14T23:59:05.834Z,7.98
